createdAt,value
2018-03-22T00:01:44.071Z,-2.90
2018-03-22T00:04:12.051Z,-2.90
2018-03-22T00:06:39.637Z,-3.00
2018-03-22T00:09:07.205Z,-3.10
2018-03-22T00:11:34.802Z,-3.10
2018-03-22T00:14:02.389Z,-3.20
2018-03-22T00:16:29.957Z,-3.10
2018-03-22T00:18:57.564Z,-3.10
2018-03-22T00:21:25.162Z,-3.20
2018-03-22T00:23:52.794Z,-3.10
2018-03-22T00:26:21.000Z,-3.20
2018-03-22T00:28:48.544Z,-3.20
2018-03-22T00:31:27.173Z,-3.20
2018-03-22T00:33:54.727Z,-3.20
2018-03-22T00:36:22.272Z,-3.20
2018-03-22T00:38:49.858Z,-3.30
2018-03-22T00:41:17.407Z,-3.20
2018-03-22T00:43:44.971Z,-3.20
2018-03-22T00:46:12.984Z,-3.20
2018-03-22T00:48:40.547Z,-3.20
2018-03-22T00:51:08.171Z,-3.20
2018-03-22T00:53:35.741Z,-3.30
2018-03-22T00:56:03.289Z,-3.40
2018-03-22T00:58:30.824Z,-3.40
2018-03-22T01:00:58.408Z,-3.40
2018-03-22T01:03:25.952Z,-3.40
2018-03-22T01:05:53.500Z,-3.40
2018-03-22T01:08:21.108Z,-3.40
2018-03-22T01:10:48.647Z,-3.40
2018-03-22T01:13:16.424Z,-3.50
2018-03-22T01:15:44.016Z,-3.60
2018-03-22T01:18:11.572Z,-3.70
2018-03-22T01:20:39.883Z,-3.70
2018-03-22T01:23:07.552Z,-3.70
2018-03-22T01:25:35.112Z,-3.80
2018-03-22T01:28:02.670Z,-3.70
2018-03-22T01:30:47.455Z,-3.80
2018-03-22T01:33:16.488Z,-3.80
2018-03-22T01:35:44.804Z,-3.90
2018-03-22T01:38:12.367Z,-3.90
2018-03-22T01:40:39.916Z,-4.00
2018-03-22T01:43:07.470Z,-4.00
2018-03-22T01:45:35.044Z,-4.00
2018-03-22T01:48:02.732Z,-3.90
2018-03-22T01:50:30.275Z,-3.90
2018-03-22T01:53:09.524Z,-3.90
2018-03-22T01:55:37.063Z,-3.90
2018-03-22T01:58:04.625Z,-4.00
2018-03-22T02:00:32.214Z,-3.90
2018-03-22T02:02:59.760Z,-4.00
2018-03-22T02:05:27.318Z,-4.10
2018-03-22T02:07:54.908Z,-4.10
2018-03-22T02:10:22.484Z,-4.00
2018-03-22T02:12:50.788Z,-4.00
2018-03-22T02:15:18.650Z,-4.00
2018-03-22T02:17:46.196Z,-3.90
2018-03-22T02:20:15.491Z,-4.00
2018-03-22T02:22:43.067Z,-4.00
2018-03-22T02:25:10.613Z,-4.10
2018-03-22T02:27:38.924Z,-4.10
2018-03-22T02:30:06.491Z,-4.10
2018-03-22T02:32:34.052Z,-4.10
2018-03-22T02:35:01.606Z,-4.10
2018-03-22T02:37:29.714Z,-4.10
2018-03-22T02:39:57.280Z,-4.10
2018-03-22T02:42:24.824Z,-4.20
2018-03-22T02:44:52.417Z,-4.20
2018-03-22T02:47:20.734Z,-4.10
2018-03-22T02:49:48.516Z,-4.20
2018-03-22T02:52:17.211Z,-4.20
2018-03-22T02:54:44.760Z,-4.20
2018-03-22T02:57:12.359Z,-4.20
2018-03-22T02:59:39.955Z,-4.10
2018-03-22T03:02:07.508Z,-4.10
2018-03-22T03:04:35.060Z,-4.20
2018-03-22T03:07:02.652Z,-4.10
2018-03-22T03:09:30.197Z,-4.10
2018-03-22T03:11:57.740Z,-4.20
2018-03-22T03:14:25.344Z,-4.30
2018-03-22T03:16:52.875Z,-4.30
2018-03-22T03:19:20.419Z,-4.40
2018-03-22T03:21:48.191Z,-4.40
2018-03-22T03:24:16.804Z,-4.30
2018-03-22T03:26:44.357Z,-4.20
2018-03-22T03:29:11.937Z,-4.30
2018-03-22T03:31:39.492Z,-4.30
2018-03-22T03:34:07.044Z,-4.40
2018-03-22T03:36:34.627Z,-4.40
2018-03-22T03:39:02.948Z,-4.40
2018-03-22T03:41:30.506Z,-4.40
2018-03-22T03:43:58.379Z,-4.40
2018-03-22T03:46:25.932Z,-4.40
2018-03-22T03:48:53.480Z,-4.50
2018-03-22T03:51:21.477Z,-4.50
2018-03-22T03:53:49.020Z,-4.50
2018-03-22T03:56:16.627Z,-4.60
2018-03-22T03:58:44.221Z,-4.60
2018-03-22T04:01:12.536Z,-4.60
2018-03-22T04:03:40.093Z,-4.60
2018-03-22T04:06:08.084Z,-4.60
2018-03-22T04:08:35.640Z,-4.60
2018-03-22T04:11:03.195Z,-4.60
2018-03-22T04:13:30.759Z,-4.60
2018-03-22T04:15:58.308Z,-4.60
2018-03-22T04:18:25.849Z,-4.70
2018-03-22T04:20:53.495Z,-4.70
2018-03-22T04:23:21.044Z,-4.70
2018-03-22T04:25:48.587Z,-4.70
2018-03-22T04:28:17.044Z,-4.70
2018-03-22T04:30:44.591Z,-4.80
2018-03-22T04:33:12.127Z,-4.80
2018-03-22T04:35:39.714Z,-4.90
2018-03-22T04:38:07.272Z,-4.90
2018-03-22T04:40:34.848Z,-4.90
2018-03-22T04:43:02.432Z,-5.00
2018-03-22T04:45:30.913Z,-4.90
2018-03-22T04:47:58.459Z,-5.00
2018-03-22T04:50:26.328Z,-5.00
2018-03-22T04:52:54.116Z,-5.00
2018-03-22T04:55:22.533Z,-5.00
2018-03-22T04:57:50.875Z,-5.00
2018-03-22T05:00:19.223Z,-5.00
2018-03-22T05:02:46.767Z,-5.00
2018-03-22T05:05:15.529Z,-5.10
2018-03-22T05:07:43.075Z,-5.00
2018-03-22T05:10:10.623Z,-5.00
2018-03-22T05:12:39.512Z,-5.10
2018-03-22T05:15:07.059Z,-5.10
2018-03-22T05:17:35.386Z,-5.00
2018-03-22T05:20:02.963Z,-5.00
2018-03-22T05:22:30.511Z,-5.00
2018-03-22T05:24:58.063Z,-5.00
2018-03-22T05:27:25.656Z,-5.00
2018-03-22T05:29:53.223Z,-5.10
2018-03-22T05:32:20.771Z,-5.00
2018-03-22T05:34:48.855Z,-5.00
2018-03-22T05:37:16.532Z,-4.90
2018-03-22T05:39:44.864Z,-4.90
2018-03-22T05:42:12.472Z,-4.90
2018-03-22T05:44:40.791Z,-4.90
2018-03-22T05:47:08.980Z,-5.00
2018-03-22T05:49:36.596Z,-4.90
2018-03-22T05:52:04.915Z,-4.90
2018-03-22T05:54:32.753Z,-4.90
2018-03-22T05:57:00.638Z,-4.80
2018-03-22T05:59:28.187Z,-4.90
2018-03-22T06:02:00.455Z,-4.90
2018-03-22T06:04:28.048Z,-4.70
2018-03-22T06:06:55.604Z,-4.70
2018-03-22T06:09:23.153Z,-4.50
2018-03-22T06:11:50.735Z,-4.40
2018-03-22T06:14:18.284Z,-4.20
2018-03-22T06:16:45.845Z,-4.10
2018-03-22T06:19:15.811Z,-4.00
2018-03-22T06:21:44.123Z,-3.80
2018-03-22T06:24:11.667Z,-3.90
2018-03-22T06:26:39.242Z,-3.70
2018-03-22T06:29:06.783Z,-3.60
2018-03-22T06:31:34.333Z,-3.60
2018-03-22T06:34:02.688Z,-3.60
2018-03-22T06:36:30.227Z,-3.60
2018-03-22T06:38:57.779Z,-3.40
2018-03-22T06:41:25.409Z,-3.50
2018-03-22T06:43:52.955Z,-3.50
2018-03-22T06:46:20.491Z,-3.40
2018-03-22T06:48:48.071Z,-3.40
2018-03-22T06:51:18.091Z,-3.20
2018-03-22T06:53:45.631Z,-3.30
2018-03-22T06:56:15.295Z,-3.20
2018-03-22T06:58:42.844Z,-3.20
2018-03-22T07:01:10.397Z,-3.20
2018-03-22T07:03:38.552Z,-3.00
2018-03-22T07:06:06.866Z,-2.60
2018-03-22T07:08:34.414Z,-2.60
2018-03-22T07:11:02.173Z,-2.40
2018-03-22T07:13:29.750Z,-2.30
2018-03-22T07:15:57.289Z,-2.00
2018-03-22T07:18:24.868Z,-1.10
2018-03-22T07:20:52.419Z,-0.20
2018-03-22T07:23:19.959Z,0.80
2018-03-22T07:25:47.830Z,1.70
2018-03-22T07:28:16.329Z,3.00
2018-03-22T07:30:43.871Z,3.00
2018-03-22T07:33:11.445Z,3.70
2018-03-22T07:35:38.988Z,4.70
2018-03-22T07:38:06.532Z,5.10
2018-03-22T07:40:34.867Z,7.00
2018-03-22T07:43:08.108Z,6.90
2018-03-22T07:45:36.968Z,9.30
2018-03-22T07:48:04.509Z,9.20
2018-03-22T07:50:32.127Z,9.30
2018-03-22T07:52:59.729Z,10.10
2018-03-22T07:55:27.267Z,9.90
2018-03-22T07:57:54.963Z,9.10
2018-03-22T08:00:22.539Z,9.40
2018-03-22T08:02:50.180Z,10.50
2018-03-22T08:05:17.724Z,11.60
2018-03-22T08:07:45.899Z,10.70
2018-03-22T08:10:14.675Z,11.80
2018-03-22T08:12:42.248Z,11.80
2018-03-22T08:15:09.824Z,11.80
2018-03-22T08:17:37.376Z,12.20
2018-03-22T08:20:04.924Z,12.40
2018-03-22T08:22:32.488Z,12.60
2018-03-22T08:25:00.049Z,12.60
2018-03-22T08:27:27.606Z,12.60
2018-03-22T08:29:55.631Z,12.00
2018-03-22T08:32:23.183Z,11.40
2018-03-22T08:34:50.723Z,10.80
2018-03-22T08:37:19.516Z,10.10
2018-03-22T08:39:47.053Z,10.40
2018-03-22T08:42:16.514Z,10.80
2018-03-22T08:44:45.152Z,10.20
2018-03-22T08:47:13.079Z,10.20
2018-03-22T08:49:40.632Z,11.00
2018-03-22T08:52:08.515Z,11.60
2018-03-22T08:54:36.068Z,12.20
2018-03-22T08:57:03.623Z,11.60
2018-03-22T08:59:31.601Z,11.10
2018-03-22T09:01:59.143Z,11.50
2018-03-22T09:04:27.453Z,10.70
2018-03-22T09:06:55.024Z,10.70
2018-03-22T09:09:22.573Z,11.00
2018-03-22T09:11:50.124Z,11.20
2018-03-22T09:14:18.283Z,11.30
2018-03-22T09:16:45.836Z,10.90
2018-03-22T09:19:15.388Z,10.80
2018-03-22T09:21:42.964Z,10.70
2018-03-22T09:24:10.516Z,11.20
2018-03-22T09:26:43.731Z,12.80
2018-03-22T09:29:11.304Z,14.20
2018-03-22T09:31:38.857Z,15.30
2018-03-22T09:34:06.400Z,15.30
2018-03-22T09:36:34.175Z,15.50
2018-03-22T09:39:01.718Z,15.60
2018-03-22T09:41:29.281Z,15.70
2018-03-22T09:43:56.864Z,15.20
2018-03-22T09:46:24.411Z,14.30
2018-03-22T09:48:51.951Z,14.10
2018-03-22T09:51:19.524Z,14.00
2018-03-22T09:53:47.108Z,14.90
2018-03-22T09:56:16.453Z,15.60
2018-03-22T09:58:44.425Z,14.90
2018-03-22T10:01:12.376Z,14.20
2018-03-22T10:03:39.919Z,13.90
2018-03-22T10:06:07.492Z,13.90
2018-03-22T10:08:35.384Z,14.50
2018-03-22T10:11:03.899Z,14.50
2018-03-22T10:13:31.475Z,13.60
2018-03-22T10:15:59.021Z,12.80
2018-03-22T10:18:26.580Z,11.70
2018-03-22T10:20:54.844Z,11.30
2018-03-22T10:23:22.391Z,11.00
2018-03-22T10:25:49.942Z,10.50
2018-03-22T10:28:17.507Z,9.90
2018-03-22T10:30:45.052Z,9.40
2018-03-22T10:33:12.611Z,8.90
2018-03-22T10:35:40.181Z,8.50
2018-03-22T10:38:07.743Z,8.30
2018-03-22T10:40:35.459Z,8.20
2018-03-22T10:43:03.715Z,8.00
2018-03-22T10:45:31.272Z,7.80
2018-03-22T10:47:58.812Z,7.80
2018-03-22T10:50:26.378Z,7.90
2018-03-22T10:52:53.924Z,7.80
2018-03-22T10:55:21.464Z,8.00
2018-03-22T10:57:49.048Z,8.20
2018-03-22T11:00:22.332Z,7.90
2018-03-22T11:02:54.445Z,7.90
2018-03-22T11:05:22.787Z,7.70
2018-03-22T11:07:50.344Z,7.60
2018-03-22T11:10:17.918Z,7.50
2018-03-22T11:12:45.480Z,7.30
2018-03-22T11:15:29.320Z,7.10
2018-03-22T11:20:37.661Z,7.10
2018-03-22T11:23:05.200Z,7.00
2018-03-22T11:25:32.788Z,7.10
2018-03-22T11:28:00.348Z,6.60
2018-03-22T11:30:29.543Z,6.40
2018-03-22T11:32:57.142Z,6.20
2018-03-22T11:35:25.478Z,6.00
2018-03-22T11:37:53.784Z,6.00
2018-03-22T11:40:21.325Z,5.90
2018-03-22T11:42:49.067Z,6.20
2018-03-22T11:45:16.610Z,6.40
2018-03-22T11:47:44.187Z,6.20
2018-03-22T11:50:11.756Z,6.00
2018-03-22T11:52:39.297Z,5.90
2018-03-22T11:55:06.856Z,6.00
2018-03-22T11:57:34.424Z,6.20
2018-03-22T12:00:01.991Z,6.30
2018-03-22T12:02:29.986Z,6.50
2018-03-22T12:04:58.338Z,6.50
2018-03-22T12:07:25.935Z,6.70
2018-03-22T12:09:54.926Z,7.10
2018-03-22T12:12:22.904Z,6.80
2018-03-22T12:14:50.464Z,6.60
2018-03-22T12:17:18.779Z,6.60
2018-03-22T12:19:46.422Z,6.50
2018-03-22T12:22:15.668Z,6.50
2018-03-22T12:24:43.250Z,6.50
2018-03-22T12:27:11.327Z,6.40
2018-03-22T12:29:38.895Z,6.60
2018-03-22T12:32:06.445Z,6.70
2018-03-22T12:34:34.017Z,6.50
2018-03-22T12:37:02.330Z,6.70
2018-03-22T12:39:29.889Z,6.70
2018-03-22T12:41:57.468Z,6.80
2018-03-22T12:44:25.028Z,7.00
2018-03-22T12:46:52.559Z,7.00
2018-03-22T12:49:20.359Z,7.10
2018-03-22T12:51:47.901Z,7.20
2018-03-22T12:54:16.532Z,7.20
2018-03-22T12:56:44.111Z,6.90
2018-03-22T12:59:11.656Z,6.80
2018-03-22T13:01:39.207Z,7.00
2018-03-22T13:04:06.784Z,7.30
2018-03-22T13:06:34.857Z,7.50
2018-03-22T13:09:03.186Z,7.20
2018-03-22T13:11:31.059Z,7.00
2018-03-22T13:13:58.591Z,7.00
2018-03-22T13:16:26.131Z,6.80
2018-03-22T13:18:54.850Z,6.90
2018-03-22T13:21:22.400Z,7.00
2018-03-22T13:23:49.965Z,6.90
2018-03-22T13:26:17.577Z,7.00
2018-03-22T13:28:45.132Z,6.90
2018-03-22T13:31:12.692Z,6.90
2018-03-22T13:33:40.657Z,7.00
2018-03-22T13:36:09.570Z,7.10
2018-03-22T13:38:37.895Z,7.20
2018-03-22T13:41:05.512Z,7.10
2018-03-22T13:43:34.679Z,7.10
2018-03-22T13:46:02.301Z,7.10
2018-03-22T13:48:30.818Z,6.90
2018-03-22T13:50:58.386Z,6.90
2018-03-22T13:53:26.812Z,6.90
2018-03-22T13:55:55.840Z,6.50
2018-03-22T13:58:23.406Z,6.30
2018-03-22T14:00:51.912Z,6.10
2018-03-22T14:03:19.748Z,6.10
2018-03-22T14:05:47.381Z,6.20
2018-03-22T14:10:50.797Z,6.20
2018-03-22T14:13:22.284Z,6.20
2018-03-22T14:15:49.892Z,6.30
2018-03-22T14:18:18.591Z,6.30
2018-03-22T14:20:46.895Z,6.30
2018-03-22T14:23:14.584Z,6.30
2018-03-22T14:25:42.191Z,6.30
2018-03-22T14:28:10.714Z,6.50
2018-03-22T14:30:38.265Z,6.40
2018-03-22T14:33:05.892Z,6.00
2018-03-22T14:35:34.368Z,5.90
2018-03-22T14:38:02.689Z,5.90
2018-03-22T14:40:30.790Z,5.90
2018-03-22T14:42:58.442Z,6.00
2018-03-22T14:45:26.524Z,6.10
2018-03-22T14:47:54.968Z,5.80
2018-03-22T14:50:22.526Z,5.80
2018-03-22T14:52:50.849Z,6.00
2018-03-22T14:55:18.468Z,6.00
2018-03-22T14:57:46.028Z,5.90
2018-03-22T15:00:16.119Z,5.90
2018-03-22T15:02:44.497Z,6.10
2018-03-22T15:05:12.672Z,6.10
2018-03-22T15:07:40.270Z,5.90
2018-03-22T15:10:08.897Z,5.90
2018-03-22T15:15:11.084Z,5.90
2018-03-22T15:17:39.397Z,5.80
2018-03-22T15:20:06.940Z,5.70
2018-03-22T15:22:34.701Z,5.70
2018-03-22T15:25:05.114Z,5.70
2018-03-22T15:27:36.905Z,5.70
2018-03-22T15:30:04.468Z,5.70
2018-03-22T15:32:33.166Z,5.60
2018-03-22T15:35:00.830Z,5.70
2018-03-22T15:37:35.733Z,5.70
2018-03-22T15:40:03.859Z,5.60
2018-03-22T15:42:33.126Z,5.50
2018-03-22T15:45:00.697Z,5.50
2018-03-22T15:47:28.339Z,5.50
2018-03-22T15:49:55.876Z,5.50
2018-03-22T15:52:24.182Z,5.20
2018-03-22T15:54:51.748Z,5.20
2018-03-22T15:57:19.287Z,5.00
2018-03-22T15:59:46.824Z,4.90
2018-03-22T16:02:16.904Z,4.90
2018-03-22T16:04:44.435Z,4.80
2018-03-22T16:07:11.984Z,4.90
2018-03-22T16:09:40.226Z,4.90
2018-03-22T16:12:08.220Z,4.90
2018-03-22T16:14:35.763Z,4.80
2018-03-22T16:17:04.096Z,4.80
2018-03-22T16:19:31.636Z,4.70
2018-03-22T16:21:59.171Z,4.80
2018-03-22T16:24:27.403Z,4.70
2018-03-22T16:26:54.941Z,4.70
2018-03-22T16:29:22.476Z,4.70
2018-03-22T16:31:50.808Z,4.80
2018-03-22T16:34:18.344Z,4.70
2018-03-22T16:36:45.908Z,4.60
2018-03-22T16:39:25.263Z,4.40
2018-03-22T16:44:23.392Z,4.30
2018-03-22T16:46:52.283Z,3.90
2018-03-22T16:49:19.821Z,3.90
2018-03-22T16:51:47.359Z,3.80
2018-03-22T16:54:15.511Z,3.60
2018-03-22T16:56:43.048Z,3.50
2018-03-22T16:59:10.601Z,3.20
2018-03-22T17:01:38.936Z,2.80
2018-03-22T17:04:06.467Z,2.80
2018-03-22T17:06:34.005Z,2.70
2018-03-22T17:09:01.864Z,2.70
2018-03-22T17:11:29.397Z,2.70
2018-03-22T17:13:57.347Z,2.70
2018-03-22T17:16:25.208Z,2.70
2018-03-22T17:18:52.822Z,2.70
2018-03-22T17:21:21.131Z,2.70
2018-03-22T17:23:48.704Z,2.70
2018-03-22T17:26:16.869Z,2.70
2018-03-22T17:28:44.451Z,2.70
2018-03-22T17:31:12.040Z,2.70
2018-03-22T17:33:39.585Z,2.60
2018-03-22T17:36:07.128Z,2.50
2018-03-22T17:38:34.695Z,2.40
2018-03-22T17:41:02.292Z,2.40
2018-03-22T17:43:29.868Z,2.30
2018-03-22T17:45:57.668Z,2.40
2018-03-22T17:48:25.298Z,2.20
2018-03-22T17:50:52.835Z,2.00
2018-03-22T17:53:20.688Z,2.10
2018-03-22T17:55:48.364Z,1.90
2018-03-22T17:58:17.181Z,1.80
2018-03-22T18:00:46.203Z,1.80
2018-03-22T18:03:29.105Z,1.70
2018-03-22T18:10:04.224Z,1.60
2018-03-22T18:12:31.815Z,1.40
2018-03-22T18:14:59.569Z,1.40
2018-03-22T18:17:27.694Z,1.50
2018-03-22T18:19:55.300Z,1.40
2018-03-22T18:22:22.888Z,1.50
2018-03-22T18:24:50.511Z,1.50
2018-03-22T18:27:18.132Z,1.50
2018-03-22T18:29:45.791Z,1.60
2018-03-22T18:32:16.115Z,1.50
2018-03-22T18:34:44.035Z,1.50
2018-03-22T18:37:11.669Z,1.30
2018-03-22T18:39:39.244Z,1.40
2018-03-22T18:42:07.743Z,1.30
2018-03-22T18:44:35.306Z,1.30
2018-03-22T18:47:02.931Z,1.40
2018-03-22T18:49:30.719Z,1.30
2018-03-22T18:51:58.261Z,1.30
2018-03-22T18:54:26.123Z,1.20
2018-03-22T18:56:53.729Z,1.40
2018-03-22T18:59:21.277Z,1.50
2018-03-22T19:01:49.810Z,1.50
2018-03-22T19:04:17.372Z,1.40
2018-03-22T19:06:44.916Z,1.40
2018-03-22T19:09:12.592Z,1.40
2018-03-22T19:11:41.594Z,1.40
2018-03-22T19:14:09.211Z,1.30
2018-03-22T19:16:38.521Z,1.30
2018-03-22T19:19:06.177Z,1.30
2018-03-22T19:21:34.083Z,1.30
2018-03-22T19:24:01.965Z,1.30
2018-03-22T19:26:29.542Z,1.20
2018-03-22T19:28:57.105Z,1.20
2018-03-22T19:31:24.740Z,1.20
2018-03-22T19:33:52.298Z,1.10
2018-03-22T19:36:19.925Z,1.10
2018-03-22T19:38:47.724Z,1.20
2018-03-22T19:41:17.369Z,1.10
2018-03-22T19:43:45.016Z,1.10
2018-03-22T19:46:14.330Z,1.00
2018-03-22T19:48:42.650Z,1.00
2018-03-22T19:51:10.190Z,1.00
2018-03-22T19:53:37.795Z,0.90
2018-03-22T19:56:05.424Z,1.00
2018-03-22T19:58:33.708Z,0.90
2018-03-22T20:01:01.320Z,0.80
2018-03-22T20:03:29.015Z,0.90
2018-03-22T20:05:56.604Z,0.90
2018-03-22T20:08:24.214Z,0.90
2018-03-22T20:10:52.580Z,0.80
2018-03-22T20:13:20.140Z,0.80
2018-03-22T20:15:47.752Z,0.80
2018-03-22T20:18:16.979Z,0.80
2018-03-22T20:20:44.532Z,0.80
2018-03-22T20:23:12.148Z,0.70
2018-03-22T20:25:39.798Z,0.70
2018-03-22T20:28:08.123Z,0.80
2018-03-22T20:30:36.460Z,0.70
2018-03-22T20:33:04.168Z,0.70
2018-03-22T20:35:31.714Z,0.70
2018-03-22T20:37:59.324Z,0.70
2018-03-22T20:40:27.651Z,0.80
2018-03-22T20:42:55.857Z,0.70
2018-03-22T20:45:24.081Z,0.80
2018-03-22T20:47:51.710Z,0.70
2018-03-22T20:50:19.309Z,0.70
2018-03-22T20:52:46.881Z,0.70
2018-03-22T20:55:25.109Z,0.70
2018-03-22T21:01:51.171Z,0.70
2018-03-22T21:04:18.760Z,0.70
2018-03-22T21:06:46.300Z,0.70
2018-03-22T21:09:27.370Z,0.90
2018-03-22T21:11:54.971Z,0.90
2018-03-22T21:14:22.521Z,0.90
2018-03-22T21:16:50.947Z,0.90
2018-03-22T21:19:19.204Z,0.90
2018-03-22T21:21:48.972Z,0.80
2018-03-22T21:24:16.577Z,0.90
2018-03-22T21:26:44.150Z,1.00
2018-03-22T21:29:11.832Z,1.00
2018-03-22T21:31:39.411Z,0.90
2018-03-22T21:34:06.969Z,0.90
2018-03-22T21:36:34.629Z,1.00
2018-03-22T21:39:02.238Z,1.00
2018-03-22T21:41:29.800Z,1.00
2018-03-22T21:44:09.611Z,1.00
2018-03-22T21:46:37.191Z,1.00
2018-03-22T21:49:04.772Z,1.10
2018-03-22T21:51:32.345Z,0.90
2018-03-22T21:53:59.879Z,0.80
2018-03-22T21:56:27.429Z,0.90
2018-03-22T21:58:55.763Z,0.80
2018-03-22T22:01:23.304Z,0.80
2018-03-22T22:03:50.922Z,0.90
2018-03-22T22:06:18.564Z,0.90
2018-03-22T22:08:46.121Z,0.90
2018-03-22T22:11:27.879Z,0.80
2018-03-22T22:17:35.786Z,0.70
2018-03-22T22:20:03.792Z,0.60
2018-03-22T22:22:31.339Z,0.50
2018-03-22T22:24:59.196Z,0.50
2018-03-22T22:27:26.813Z,0.60
2018-03-22T22:29:54.365Z,0.60
2018-03-22T22:32:22.728Z,0.60
2018-03-22T22:34:50.347Z,0.60
2018-03-22T22:37:17.963Z,0.50
2018-03-22T22:39:45.580Z,0.60
2018-03-22T22:42:25.159Z,0.60
2018-03-22T22:46:58.032Z,0.60
2018-03-22T22:49:25.568Z,0.60
2018-03-22T22:51:53.128Z,0.50
2018-03-22T22:54:20.740Z,0.60
2018-03-22T22:56:48.296Z,0.60
2018-03-22T22:59:16.476Z,0.60
2018-03-22T23:01:44.880Z,0.60
2018-03-22T23:04:12.428Z,0.60
2018-03-22T23:06:40.735Z,0.60
2018-03-22T23:09:08.940Z,0.60
2018-03-22T23:11:36.489Z,0.70
2018-03-22T23:14:04.023Z,0.70
2018-03-22T23:16:31.596Z,0.70
2018-03-22T23:18:59.142Z,0.70
2018-03-22T23:21:27.133Z,0.70
2018-03-22T23:23:54.753Z,0.70
2018-03-22T23:26:23.140Z,0.80
2018-03-22T23:28:50.708Z,0.70
2018-03-22T23:31:18.579Z,0.70
2018-03-22T23:33:46.108Z,0.80
2018-03-22T23:36:24.495Z,0.80
2018-03-22T23:42:28.992Z,0.80
2018-03-22T23:44:56.531Z,0.70
2018-03-22T23:47:24.853Z,0.90
2018-03-22T23:49:52.479Z,0.90
2018-03-22T23:52:20.790Z,0.90
2018-03-22T23:54:48.347Z,0.90
2018-03-22T23:57:16.749Z,1.00
2018-03-22T23:59:44.391Z,0.90
